sensor_id;sensor_type;location;lat;lon;timestamp;P1;durP1;ratioP1;P2;durP2;ratioP2
71947;SDS011;63257;55.082;38.772;2023-08-30T00:00:55;22.13;;;11.98;;
71947;SDS011;63257;55.082;38.772;2023-08-30T00:03:21;22.67;;;12.05;;
71947;SDS011;63257;55.082;38.772;2023-08-30T00:05:47;21.43;;;11.93;;
71947;SDS011;63257;55.082;38.772;2023-08-30T00:08:13;23.25;;;12.20;;
71947;SDS011;63257;55.082;38.772;2023-08-30T00:10:44;20.93;;;11.83;;
71947;SDS011;63257;55.082;38.772;2023-08-30T00:13:13;22.20;;;12.65;;
71947;SDS011;63257;55.082;38.772;2023-08-30T00:15:39;23.08;;;12.45;;
71947;SDS011;63257;55.082;38.772;2023-08-30T00:18:05;23.02;;;12.80;;
71947;SDS011;63257;55.082;38.772;2023-08-30T00:20:31;23.83;;;12.70;;
71947;SDS011;63257;55.082;38.772;2023-08-30T00:22:57;21.85;;;12.77;;
71947;SDS011;63257;55.082;38.772;2023-08-30T00:25:23;24.80;;;12.90;;
71947;SDS011;63257;55.082;38.772;2023-08-30T00:27:49;23.10;;;12.80;;
71947;SDS011;63257;55.082;38.772;2023-08-30T00:30:14;21.20;;;12.13;;
71947;SDS011;63257;55.082;38.772;2023-08-30T00:32:40;23.85;;;12.15;;
71947;SDS011;63257;55.082;38.772;2023-08-30T00:35:06;24.02;;;12.60;;
71947;SDS011;63257;55.082;38.772;2023-08-30T00:37:32;21.73;;;12.30;;
71947;SDS011;63257;55.082;38.772;2023-08-30T00:39:58;23.23;;;12.70;;
71947;SDS011;63257;55.082;38.772;2023-08-30T00:42:30;23.95;;;13.15;;
71947;SDS011;63257;55.082;38.772;2023-08-30T00:44:55;22.07;;;12.63;;
71947;SDS011;63257;55.082;38.772;2023-08-30T00:47:21;25.65;;;13.23;;
71947;SDS011;63257;55.082;38.772;2023-08-30T00:49:47;23.27;;;12.73;;
71947;SDS011;63257;55.082;38.772;2023-08-30T00:52:13;24.35;;;12.98;;
71947;SDS011;63257;55.082;38.772;2023-08-30T00:54:39;27.90;;;14.18;;
71947;SDS011;63257;55.082;38.772;2023-08-30T00:57:05;25.17;;;13.73;;
71947;SDS011;63257;55.082;38.772;2023-08-30T00:59:32;23.40;;;13.27;;
71947;SDS011;63257;55.082;38.772;2023-08-30T01:01:59;24.65;;;13.85;;
71947;SDS011;63257;55.082;38.772;2023-08-30T01:04:29;28.25;;;13.38;;
71947;SDS011;63257;55.082;38.772;2023-08-30T01:06:55;23.13;;;13.15;;
71947;SDS011;63257;55.082;38.772;2023-08-30T01:09:21;28.50;;;14.17;;
71947;SDS011;63257;55.082;38.772;2023-08-30T01:14:20;24.88;;;13.70;;
71947;SDS011;63257;55.082;38.772;2023-08-30T01:16:51;23.10;;;12.48;;
71947;SDS011;63257;55.082;38.772;2023-08-30T01:22:39;22.20;;;13.10;;
71947;SDS011;63257;55.082;38.772;2023-08-30T01:25:08;24.25;;;12.93;;
71947;SDS011;63257;55.082;38.772;2023-08-30T01:27:36;23.67;;;13.38;;
71947;SDS011;63257;55.082;38.772;2023-08-30T01:30:04;24.38;;;13.18;;
71947;SDS011;63257;55.082;38.772;2023-08-30T01:32:33;26.45;;;14.52;;
71947;SDS011;63257;55.082;38.772;2023-08-30T01:35:01;25.67;;;13.93;;
71947;SDS011;63257;55.082;38.772;2023-08-30T01:37:30;31.42;;;15.75;;
71947;SDS011;63257;55.082;38.772;2023-08-30T01:39:57;28.80;;;15.32;;
71947;SDS011;63257;55.082;38.772;2023-08-30T01:42:24;29.20;;;15.57;;
71947;SDS011;63257;55.082;38.772;2023-08-30T01:44:53;29.80;;;16.70;;
71947;SDS011;63257;55.082;38.772;2023-08-30T01:47:23;31.77;;;15.87;;
71947;SDS011;63257;55.082;38.772;2023-08-30T01:49:53;30.42;;;15.95;;
71947;SDS011;63257;55.082;38.772;2023-08-30T01:52:22;32.90;;;16.58;;
71947;SDS011;63257;55.082;38.772;2023-08-30T01:54:53;35.20;;;17.52;;
71947;SDS011;63257;55.082;38.772;2023-08-30T01:57:19;30.00;;;15.70;;
71947;SDS011;63257;55.082;38.772;2023-08-30T01:59:45;33.80;;;16.93;;
71947;SDS011;63257;55.082;38.772;2023-08-30T02:02:11;32.72;;;17.25;;
71947;SDS011;63257;55.082;38.772;2023-08-30T02:04:37;36.05;;;17.77;;
71947;SDS011;63257;55.082;38.772;2023-08-30T02:09:36;36.92;;;18.73;;
71947;SDS011;63257;55.082;38.772;2023-08-30T02:12:07;38.95;;;19.33;;
71947;SDS011;63257;55.082;38.772;2023-08-30T02:14:38;40.60;;;19.55;;
71947;SDS011;63257;55.082;38.772;2023-08-30T02:17:06;39.80;;;20.20;;
71947;SDS011;63257;55.082;38.772;2023-08-30T02:19:33;40.33;;;21.02;;
71947;SDS011;63257;55.082;38.772;2023-08-30T02:22:00;42.85;;;22.23;;
71947;SDS011;63257;55.082;38.772;2023-08-30T02:24:26;43.78;;;22.52;;
71947;SDS011;63257;55.082;38.772;2023-08-30T02:26:51;46.27;;;21.70;;
71947;SDS011;63257;55.082;38.772;2023-08-30T02:29:17;45.10;;;22.63;;
71947;SDS011;63257;55.082;38.772;2023-08-30T02:31:43;43.00;;;22.37;;
71947;SDS011;63257;55.082;38.772;2023-08-30T02:34:09;47.88;;;22.80;;
71947;SDS011;63257;55.082;38.772;2023-08-30T02:36:36;44.40;;;21.90;;
71947;SDS011;63257;55.082;38.772;2023-08-30T02:39:02;47.30;;;21.70;;
71947;SDS011;63257;55.082;38.772;2023-08-30T02:41:29;47.03;;;23.00;;
71947;SDS011;63257;55.082;38.772;2023-08-30T02:43:55;43.92;;;21.55;;
71947;SDS011;63257;55.082;38.772;2023-08-30T02:46:20;44.80;;;22.17;;
71947;SDS011;63257;55.082;38.772;2023-08-30T02:48:46;45.47;;;22.73;;
71947;SDS011;63257;55.082;38.772;2023-08-30T02:51:12;43.73;;;21.97;;
71947;SDS011;63257;55.082;38.772;2023-08-30T02:53:38;46.90;;;22.23;;
71947;SDS011;63257;55.082;38.772;2023-08-30T02:56:03;45.53;;;23.33;;
71947;SDS011;63257;55.082;38.772;2023-08-30T02:58:29;51.75;;;24.17;;
71947;SDS011;63257;55.082;38.772;2023-08-30T03:00:59;50.93;;;25.10;;
71947;SDS011;63257;55.082;38.772;2023-08-30T03:03:25;47.78;;;22.50;;
71947;SDS011;63257;55.082;38.772;2023-08-30T03:05:52;50.15;;;23.17;;
71947;SDS011;63257;55.082;38.772;2023-08-30T03:08:18;46.00;;;22.77;;
71947;SDS011;63257;55.082;38.772;2023-08-30T03:10:43;51.80;;;23.77;;
71947;SDS011;63257;55.082;38.772;2023-08-30T03:13:11;45.30;;;21.85;;
71947;SDS011;63257;55.082;38.772;2023-08-30T03:15:37;47.65;;;21.80;;
71947;SDS011;63257;55.082;38.772;2023-08-30T03:18:03;48.23;;;22.57;;
71947;SDS011;63257;55.082;38.772;2023-08-30T03:20:29;44.38;;;22.10;;
71947;SDS011;63257;55.082;38.772;2023-08-30T03:22:58;52.23;;;23.03;;
71947;SDS011;63257;55.082;38.772;2023-08-30T03:25:24;45.63;;;22.70;;
71947;SDS011;63257;55.082;38.772;2023-08-30T03:27:50;48.45;;;22.23;;
71947;SDS011;63257;55.082;38.772;2023-08-30T03:30:16;45.08;;;22.02;;
71947;SDS011;63257;55.082;38.772;2023-08-30T03:32:42;42.50;;;19.83;;
71947;SDS011;63257;55.082;38.772;2023-08-30T03:35:08;44.20;;;21.05;;
71947;SDS011;63257;55.082;38.772;2023-08-30T03:37:34;43.60;;;20.85;;
71947;SDS011;63257;55.082;38.772;2023-08-30T03:40:01;43.60;;;19.63;;
71947;SDS011;63257;55.082;38.772;2023-08-30T03:42:29;101.23;;;48.97;;
71947;SDS011;63257;55.082;38.772;2023-08-30T03:44:55;46.58;;;20.40;;
71947;SDS011;63257;55.082;38.772;2023-08-30T03:47:21;50.80;;;20.30;;
71947;SDS011;63257;55.082;38.772;2023-08-30T03:49:47;49.33;;;21.67;;
71947;SDS011;63257;55.082;38.772;2023-08-30T03:52:13;49.17;;;21.23;;
71947;SDS011;63257;55.082;38.772;2023-08-30T03:54:39;48.75;;;21.33;;
71947;SDS011;63257;55.082;38.772;2023-08-30T03:57:05;52.33;;;21.07;;
71947;SDS011;63257;55.082;38.772;2023-08-30T03:59:31;49.65;;;22.27;;
71947;SDS011;63257;55.082;38.772;2023-08-30T04:01:58;47.05;;;21.30;;
71947;SDS011;63257;55.082;38.772;2023-08-30T04:04:24;50.60;;;21.17;;
71947;SDS011;63257;55.082;38.772;2023-08-30T04:06:50;44.95;;;20.23;;
71947;SDS011;63257;55.082;38.772;2023-08-30T04:09:16;46.17;;;20.25;;
71947;SDS011;63257;55.082;38.772;2023-08-30T04:11:43;48.30;;;21.50;;
71947;SDS011;63257;55.082;38.772;2023-08-30T04:14:10;49.55;;;21.27;;
71947;SDS011;63257;55.082;38.772;2023-08-30T04:16:36;43.88;;;19.67;;
71947;SDS011;63257;55.082;38.772;2023-08-30T04:19:01;46.17;;;21.17;;
71947;SDS011;63257;55.082;38.772;2023-08-30T04:21:28;47.20;;;19.33;;
71947;SDS011;63257;55.082;38.772;2023-08-30T04:23:54;40.03;;;19.23;;
71947;SDS011;63257;55.082;38.772;2023-08-30T04:26:21;44.43;;;20.30;;
71947;SDS011;63257;55.082;38.772;2023-08-30T04:28:46;45.95;;;20.33;;
71947;SDS011;63257;55.082;38.772;2023-08-30T04:31:12;40.87;;;19.33;;
71947;SDS011;63257;55.082;38.772;2023-08-30T04:33:39;41.47;;;20.08;;
71947;SDS011;63257;55.082;38.772;2023-08-30T04:36:05;41.83;;;18.63;;
71947;SDS011;63257;55.082;38.772;2023-08-30T04:38:31;33.90;;;17.52;;
71947;SDS011;63257;55.082;38.772;2023-08-30T04:40:58;37.63;;;18.90;;
71947;SDS011;63257;55.082;38.772;2023-08-30T04:43:32;36.63;;;18.17;;
71947;SDS011;63257;55.082;38.772;2023-08-30T04:45:57;37.83;;;18.77;;
71947;SDS011;63257;55.082;38.772;2023-08-30T04:48:24;35.73;;;18.77;;
71947;SDS011;63257;55.082;38.772;2023-08-30T04:50:57;38.65;;;19.63;;
71947;SDS011;63257;55.082;38.772;2023-08-30T04:53:27;34.25;;;17.52;;
71947;SDS011;63257;55.082;38.772;2023-08-30T04:55:53;36.97;;;18.30;;
71947;SDS011;63257;55.082;38.772;2023-08-30T04:58:19;37.00;;;16.20;;
71947;SDS011;63257;55.082;38.772;2023-08-30T05:00:45;43.45;;;18.58;;
71947;SDS011;63257;55.082;38.772;2023-08-30T05:03:11;36.90;;;17.38;;
71947;SDS011;63257;55.082;38.772;2023-08-30T05:05:37;37.65;;;18.13;;
71947;SDS011;63257;55.082;38.772;2023-08-30T05:08:03;43.57;;;18.13;;
71947;SDS011;63257;55.082;38.772;2023-08-30T05:10:31;39.50;;;18.42;;
71947;SDS011;63257;55.082;38.772;2023-08-30T05:12:57;45.78;;;19.15;;
71947;SDS011;63257;55.082;38.772;2023-08-30T05:15:23;53.30;;;20.73;;
71947;SDS011;63257;55.082;38.772;2023-08-30T05:17:49;54.03;;;20.13;;
71947;SDS011;63257;55.082;38.772;2023-08-30T05:20:15;56.08;;;21.00;;
71947;SDS011;63257;55.082;38.772;2023-08-30T05:22:41;55.57;;;21.57;;
71947;SDS011;63257;55.082;38.772;2023-08-30T05:25:07;53.42;;;22.05;;
71947;SDS011;63257;55.082;38.772;2023-08-30T05:27:33;60.73;;;21.03;;
71947;SDS011;63257;55.082;38.772;2023-08-30T05:29:58;48.70;;;19.77;;
71947;SDS011;63257;55.082;38.772;2023-08-30T05:32:24;47.95;;;20.77;;
71947;SDS011;63257;55.082;38.772;2023-08-30T05:35:19;48.28;;;20.35;;
71947;SDS011;63257;55.082;38.772;2023-08-30T05:38:07;46.58;;;20.33;;
71947;SDS011;63257;55.082;38.772;2023-08-30T05:40:51;47.42;;;20.58;;
71947;SDS011;63257;55.082;38.772;2023-08-30T05:43:16;51.53;;;22.05;;
71947;SDS011;63257;55.082;38.772;2023-08-30T05:45:43;51.90;;;22.50;;
71947;SDS011;63257;55.082;38.772;2023-08-30T05:48:09;55.47;;;21.80;;
71947;SDS011;63257;55.082;38.772;2023-08-30T05:50:35;49.20;;;21.60;;
71947;SDS011;63257;55.082;38.772;2023-08-30T05:53:01;55.65;;;23.88;;
71947;SDS011;63257;55.082;38.772;2023-08-30T05:55:26;54.42;;;21.98;;
71947;SDS011;63257;55.082;38.772;2023-08-30T05:58:07;51.22;;;20.55;;
71947;SDS011;63257;55.082;38.772;2023-08-30T06:00:33;48.83;;;19.98;;
71947;SDS011;63257;55.082;38.772;2023-08-30T06:02:59;52.13;;;22.23;;
71947;SDS011;63257;55.082;38.772;2023-08-30T06:05:25;53.60;;;22.10;;
71947;SDS011;63257;55.082;38.772;2023-08-30T06:07:51;51.70;;;22.60;;
71947;SDS011;63257;55.082;38.772;2023-08-30T06:10:17;55.23;;;23.97;;
71947;SDS011;63257;55.082;38.772;2023-08-30T06:12:44;50.17;;;22.55;;
71947;SDS011;63257;55.082;38.772;2023-08-30T06:15:10;54.45;;;22.70;;
71947;SDS011;63257;55.082;38.772;2023-08-30T06:17:36;51.20;;;21.97;;
71947;SDS011;63257;55.082;38.772;2023-08-30T06:20:02;51.47;;;19.40;;
71947;SDS011;63257;55.082;38.772;2023-08-30T06:22:30;57.55;;;20.67;;
71947;SDS011;63257;55.082;38.772;2023-08-30T06:24:56;52.00;;;20.00;;
71947;SDS011;63257;55.082;38.772;2023-08-30T06:27:23;49.00;;;18.83;;
71947;SDS011;63257;55.082;38.772;2023-08-30T06:29:49;51.13;;;20.83;;
71947;SDS011;63257;55.082;38.772;2023-08-30T06:32:16;40.22;;;16.35;;
71947;SDS011;63257;55.082;38.772;2023-08-30T06:34:42;38.25;;;15.68;;
71947;SDS011;63257;55.082;38.772;2023-08-30T06:37:09;43.33;;;16.45;;
71947;SDS011;63257;55.082;38.772;2023-08-30T06:39:34;50.83;;;19.40;;
71947;SDS011;63257;55.082;38.772;2023-08-30T06:42:04;45.83;;;17.60;;
71947;SDS011;63257;55.082;38.772;2023-08-30T06:44:30;49.22;;;18.55;;
71947;SDS011;63257;55.082;38.772;2023-08-30T06:46:56;41.97;;;17.40;;
71947;SDS011;63257;55.082;38.772;2023-08-30T06:49:22;41.22;;;16.67;;
71947;SDS011;63257;55.082;38.772;2023-08-30T06:51:49;41.42;;;17.25;;
71947;SDS011;63257;55.082;38.772;2023-08-30T06:54:14;36.92;;;16.65;;
71947;SDS011;63257;55.082;38.772;2023-08-30T06:56:40;41.83;;;17.65;;
71947;SDS011;63257;55.082;38.772;2023-08-30T06:59:06;35.97;;;15.73;;
71947;SDS011;63257;55.082;38.772;2023-08-30T07:01:32;35.20;;;14.57;;
71947;SDS011;63257;55.082;38.772;2023-08-30T07:03:57;34.47;;;15.43;;
71947;SDS011;63257;55.082;38.772;2023-08-30T07:06:23;32.60;;;14.87;;
71947;SDS011;63257;55.082;38.772;2023-08-30T07:08:49;28.08;;;13.10;;
71947;SDS011;63257;55.082;38.772;2023-08-30T07:11:15;32.63;;;15.90;;
71947;SDS011;63257;55.082;38.772;2023-08-30T07:13:41;29.50;;;13.35;;
71947;SDS011;63257;55.082;38.772;2023-08-30T07:16:07;33.40;;;14.52;;
71947;SDS011;63257;55.082;38.772;2023-08-30T07:18:32;29.13;;;14.15;;
71947;SDS011;63257;55.082;38.772;2023-08-30T07:20:58;30.92;;;14.95;;
71947;SDS011;63257;55.082;38.772;2023-08-30T07:23:24;26.58;;;13.18;;
71947;SDS011;63257;55.082;38.772;2023-08-30T07:25:51;30.20;;;13.33;;
71947;SDS011;63257;55.082;38.772;2023-08-30T07:28:17;25.52;;;12.50;;
71947;SDS011;63257;55.082;38.772;2023-08-30T07:30:43;26.75;;;13.15;;
71947;SDS011;63257;55.082;38.772;2023-08-30T07:33:08;27.13;;;14.80;;
71947;SDS011;63257;55.082;38.772;2023-08-30T07:35:34;26.05;;;12.98;;
71947;SDS011;63257;55.082;38.772;2023-08-30T07:38:00;26.27;;;14.07;;
71947;SDS011;63257;55.082;38.772;2023-08-30T07:40:26;26.75;;;14.63;;
71947;SDS011;63257;55.082;38.772;2023-08-30T07:42:53;27.02;;;13.30;;
71947;SDS011;63257;55.082;38.772;2023-08-30T07:45:19;26.73;;;13.40;;
71947;SDS011;63257;55.082;38.772;2023-08-30T07:47:45;26.92;;;13.98;;
71947;SDS011;63257;55.082;38.772;2023-08-30T07:50:11;27.90;;;14.33;;
71947;SDS011;63257;55.082;38.772;2023-08-30T07:52:36;23.23;;;13.07;;
71947;SDS011;63257;55.082;38.772;2023-08-30T07:55:02;20.87;;;11.80;;
71947;SDS011;63257;55.082;38.772;2023-08-30T07:57:29;20.17;;;11.75;;
71947;SDS011;63257;55.082;38.772;2023-08-30T07:59:55;19.47;;;11.17;;
71947;SDS011;63257;55.082;38.772;2023-08-30T08:02:20;21.70;;;11.93;;
71947;SDS011;63257;55.082;38.772;2023-08-30T08:04:46;18.97;;;10.90;;
71947;SDS011;63257;55.082;38.772;2023-08-30T08:07:12;18.67;;;10.98;;
71947;SDS011;63257;55.082;38.772;2023-08-30T08:09:38;19.23;;;11.13;;
71947;SDS011;63257;55.082;38.772;2023-08-30T08:12:04;19.93;;;11.13;;
71947;SDS011;63257;55.082;38.772;2023-08-30T08:14:30;19.45;;;11.95;;
71947;SDS011;63257;55.082;38.772;2023-08-30T08:16:56;20.55;;;12.80;;
71947;SDS011;63257;55.082;38.772;2023-08-30T08:19:22;24.37;;;11.03;;
71947;SDS011;63257;55.082;38.772;2023-08-30T08:21:48;19.23;;;11.20;;
71947;SDS011;63257;55.082;38.772;2023-08-30T08:24:14;18.37;;;10.40;;
71947;SDS011;63257;55.082;38.772;2023-08-30T08:26:40;16.30;;;9.90;;
71947;SDS011;63257;55.082;38.772;2023-08-30T08:29:06;18.00;;;9.90;;
71947;SDS011;63257;55.082;38.772;2023-08-30T08:31:32;21.35;;;11.38;;
71947;SDS011;63257;55.082;38.772;2023-08-30T08:34:08;19.05;;;11.05;;
71947;SDS011;63257;55.082;38.772;2023-08-30T08:36:36;22.58;;;11.70;;
71947;SDS011;63257;55.082;38.772;2023-08-30T08:39:06;20.70;;;12.18;;
71947;SDS011;63257;55.082;38.772;2023-08-30T08:41:35;20.52;;;11.75;;
71947;SDS011;63257;55.082;38.772;2023-08-30T08:44:07;21.58;;;11.75;;
71947;SDS011;63257;55.082;38.772;2023-08-30T08:46:37;23.33;;;12.23;;
71947;SDS011;63257;55.082;38.772;2023-08-30T08:49:22;19.73;;;11.55;;
71947;SDS011;63257;55.082;38.772;2023-08-30T08:51:48;21.48;;;11.30;;
71947;SDS011;63257;55.082;38.772;2023-08-30T08:54:14;22.38;;;11.77;;
71947;SDS011;63257;55.082;38.772;2023-08-30T08:56:42;20.65;;;10.40;;
71947;SDS011;63257;55.082;38.772;2023-08-30T08:59:07;19.43;;;11.40;;
71947;SDS011;63257;55.082;38.772;2023-08-30T09:01:34;20.25;;;12.27;;
71947;SDS011;63257;55.082;38.772;2023-08-30T09:04:05;20.27;;;11.77;;
71947;SDS011;63257;55.082;38.772;2023-08-30T09:06:35;21.67;;;11.43;;
71947;SDS011;63257;55.082;38.772;2023-08-30T09:09:08;19.40;;;10.68;;
71947;SDS011;63257;55.082;38.772;2023-08-30T09:11:35;23.48;;;12.00;;
71947;SDS011;63257;55.082;38.772;2023-08-30T09:14:01;19.48;;;11.77;;
71947;SDS011;63257;55.082;38.772;2023-08-30T09:16:27;17.47;;;10.43;;
71947;SDS011;63257;55.082;38.772;2023-08-30T09:19:02;19.70;;;11.02;;
71947;SDS011;63257;55.082;38.772;2023-08-30T09:21:29;19.85;;;10.70;;
71947;SDS011;63257;55.082;38.772;2023-08-30T09:23:59;18.30;;;11.40;;
71947;SDS011;63257;55.082;38.772;2023-08-30T09:26:29;17.73;;;10.40;;
71947;SDS011;63257;55.082;38.772;2023-08-30T09:29:07;18.38;;;11.13;;
71947;SDS011;63257;55.082;38.772;2023-08-30T09:31:37;19.00;;;11.80;;
71947;SDS011;63257;55.082;38.772;2023-08-30T09:34:04;17.73;;;11.10;;
71947;SDS011;63257;55.082;38.772;2023-08-30T09:36:37;20.10;;;12.00;;
71947;SDS011;63257;55.082;38.772;2023-08-30T09:39:11;18.85;;;11.52;;
71947;SDS011;63257;55.082;38.772;2023-08-30T09:41:42;19.60;;;11.68;;
71947;SDS011;63257;55.082;38.772;2023-08-30T09:44:12;19.65;;;11.52;;
71947;SDS011;63257;55.082;38.772;2023-08-30T09:47:02;19.38;;;11.07;;
71947;SDS011;63257;55.082;38.772;2023-08-30T09:49:28;19.80;;;10.80;;
71947;SDS011;63257;55.082;38.772;2023-08-30T09:52:02;18.55;;;10.68;;
71947;SDS011;63257;55.082;38.772;2023-08-30T09:54:31;16.77;;;9.85;;
71947;SDS011;63257;55.082;38.772;2023-08-30T09:56:59;18.60;;;11.00;;
71947;SDS011;63257;55.082;38.772;2023-08-30T09:59:26;17.45;;;10.65;;
71947;SDS011;63257;55.082;38.772;2023-08-30T10:01:52;18.47;;;10.53;;
71947;SDS011;63257;55.082;38.772;2023-08-30T10:04:19;17.60;;;10.80;;
71947;SDS011;63257;55.082;38.772;2023-08-30T10:06:45;20.63;;;11.02;;
71947;SDS011;63257;55.082;38.772;2023-08-30T10:09:12;18.60;;;11.40;;
71947;SDS011;63257;55.082;38.772;2023-08-30T10:11:39;17.38;;;10.88;;
71947;SDS011;63257;55.082;38.772;2023-08-30T10:14:06;18.67;;;11.43;;
71947;SDS011;63257;55.082;38.772;2023-08-30T10:16:45;17.05;;;10.95;;
71947;SDS011;63257;55.082;38.772;2023-08-30T10:19:26;17.40;;;11.15;;
71947;SDS011;63257;55.082;38.772;2023-08-30T10:24:24;16.90;;;11.07;;
71947;SDS011;63257;55.082;38.772;2023-08-30T10:26:52;17.85;;;10.40;;
71947;SDS011;63257;55.082;38.772;2023-08-30T10:29:19;20.80;;;12.10;;
71947;SDS011;63257;55.082;38.772;2023-08-30T10:31:46;18.80;;;11.38;;
71947;SDS011;63257;55.082;38.772;2023-08-30T10:34:16;22.58;;;12.13;;
71947;SDS011;63257;55.082;38.772;2023-08-30T10:36:43;19.30;;;10.63;;
71947;SDS011;63257;55.082;38.772;2023-08-30T10:39:12;18.85;;;10.82;;
71947;SDS011;63257;55.082;38.772;2023-08-30T10:41:54;17.30;;;11.45;;
71947;SDS011;63257;55.082;38.772;2023-08-30T10:44:22;18.92;;;11.85;;
71947;SDS011;63257;55.082;38.772;2023-08-30T10:46:54;18.10;;;10.43;;
71947;SDS011;63257;55.082;38.772;2023-08-30T10:49:21;17.27;;;10.07;;
71947;SDS011;63257;55.082;38.772;2023-08-30T10:51:56;17.20;;;10.25;;
71947;SDS011;63257;55.082;38.772;2023-08-30T10:54:24;17.52;;;10.68;;
71947;SDS011;63257;55.082;38.772;2023-08-30T10:56:57;13.95;;;9.40;;
71947;SDS011;63257;55.082;38.772;2023-08-30T10:59:26;14.77;;;9.23;;
71947;SDS011;63257;55.082;38.772;2023-08-30T11:01:52;15.37;;;9.60;;
71947;SDS011;63257;55.082;38.772;2023-08-30T11:04:19;15.23;;;9.80;;
71947;SDS011;63257;55.082;38.772;2023-08-30T11:06:47;15.88;;;8.80;;
71947;SDS011;63257;55.082;38.772;2023-08-30T11:09:15;15.45;;;9.55;;
71947;SDS011;63257;55.082;38.772;2023-08-30T11:11:48;16.25;;;9.80;;
71947;SDS011;63257;55.082;38.772;2023-08-30T11:14:16;15.77;;;9.93;;
71947;SDS011;63257;55.082;38.772;2023-08-30T11:16:43;15.85;;;9.60;;
71947;SDS011;63257;55.082;38.772;2023-08-30T11:19:09;15.15;;;8.93;;
71947;SDS011;63257;55.082;38.772;2023-08-30T11:21:38;14.40;;;9.23;;
71947;SDS011;63257;55.082;38.772;2023-08-30T11:24:07;14.82;;;8.95;;
71947;SDS011;63257;55.082;38.772;2023-08-30T11:26:33;14.70;;;9.13;;
71947;SDS011;63257;55.082;38.772;2023-08-30T11:29:05;15.68;;;9.27;;
71947;SDS011;63257;55.082;38.772;2023-08-30T11:31:34;13.55;;;8.90;;
71947;SDS011;63257;55.082;38.772;2023-08-30T11:34:01;15.50;;;8.95;;
71947;SDS011;63257;55.082;38.772;2023-08-30T11:36:28;14.45;;;8.95;;
71947;SDS011;63257;55.082;38.772;2023-08-30T11:38:56;14.60;;;9.67;;
71947;SDS011;63257;55.082;38.772;2023-08-30T11:41:23;13.70;;;8.77;;
71947;SDS011;63257;55.082;38.772;2023-08-30T11:43:53;14.77;;;9.13;;
71947;SDS011;63257;55.082;38.772;2023-08-30T11:46:20;12.98;;;8.38;;
71947;SDS011;63257;55.082;38.772;2023-08-30T11:48:47;14.18;;;8.82;;
71947;SDS011;63257;55.082;38.772;2023-08-30T11:51:14;12.83;;;7.90;;
71947;SDS011;63257;55.082;38.772;2023-08-30T11:53:42;13.30;;;8.07;;
71947;SDS011;63257;55.082;38.772;2023-08-30T11:56:09;15.25;;;7.72;;
71947;SDS011;63257;55.082;38.772;2023-08-30T11:58:35;14.13;;;8.13;;
71947;SDS011;63257;55.082;38.772;2023-08-30T12:01:02;12.63;;;8.20;;
71947;SDS011;63257;55.082;38.772;2023-08-30T12:03:30;13.60;;;8.03;;
71947;SDS011;63257;55.082;38.772;2023-08-30T12:05:57;12.05;;;8.90;;
71947;SDS011;63257;55.082;38.772;2023-08-30T12:08:25;13.35;;;8.40;;
71947;SDS011;63257;55.082;38.772;2023-08-30T12:10:55;13.60;;;8.20;;
71947;SDS011;63257;55.082;38.772;2023-08-30T12:13:23;13.60;;;8.10;;
71947;SDS011;63257;55.082;38.772;2023-08-30T12:15:59;13.87;;;8.07;;
71947;SDS011;63257;55.082;38.772;2023-08-30T12:18:26;12.18;;;7.47;;
71947;SDS011;63257;55.082;38.772;2023-08-30T12:20:54;13.55;;;7.82;;
71947;SDS011;63257;55.082;38.772;2023-08-30T12:23:27;12.20;;;7.68;;
71947;SDS011;63257;55.082;38.772;2023-08-30T12:25:58;11.35;;;7.55;;
71947;SDS011;63257;55.082;38.772;2023-08-30T12:28:26;14.30;;;9.00;;
71947;SDS011;63257;55.082;38.772;2023-08-30T12:30:52;11.38;;;7.78;;
71947;SDS011;63257;55.082;38.772;2023-08-30T12:33:19;12.52;;;8.10;;
71947;SDS011;63257;55.082;38.772;2023-08-30T12:35:45;12.00;;;8.15;;
71947;SDS011;63257;55.082;38.772;2023-08-30T12:38:10;11.10;;;7.90;;
71947;SDS011;63257;55.082;38.772;2023-08-30T12:40:49;11.95;;;7.93;;
71947;SDS011;63257;55.082;38.772;2023-08-30T12:43:18;12.25;;;8.30;;
71947;SDS011;63257;55.082;38.772;2023-08-30T12:45:45;11.43;;;8.13;;
71947;SDS011;63257;55.082;38.772;2023-08-30T12:48:12;11.35;;;8.07;;
71947;SDS011;63257;55.082;38.772;2023-08-30T12:50:41;9.70;;;7.17;;
71947;SDS011;63257;55.082;38.772;2023-08-30T12:53:08;11.77;;;7.90;;
71947;SDS011;63257;55.082;38.772;2023-08-30T12:55:34;10.77;;;6.30;;
71947;SDS011;63257;55.082;38.772;2023-08-30T12:58:01;8.45;;;6.90;;
71947;SDS011;63257;55.082;38.772;2023-08-30T13:00:27;9.68;;;6.90;;
71947;SDS011;63257;55.082;38.772;2023-08-30T13:02:54;9.87;;;7.00;;
71947;SDS011;63257;55.082;38.772;2023-08-30T13:05:20;9.73;;;6.80;;
71947;SDS011;63257;55.082;38.772;2023-08-30T13:07:47;8.70;;;6.03;;
71947;SDS011;63257;55.082;38.772;2023-08-30T13:10:16;10.00;;;6.60;;
71947;SDS011;63257;55.082;38.772;2023-08-30T13:12:42;11.20;;;6.53;;
71947;SDS011;63257;55.082;38.772;2023-08-30T13:15:08;10.77;;;6.13;;
71947;SDS011;63257;55.082;38.772;2023-08-30T13:17:34;9.77;;;6.55;;
71947;SDS011;63257;55.082;38.772;2023-08-30T13:20:01;10.88;;;6.65;;
71947;SDS011;63257;55.082;38.772;2023-08-30T13:22:29;9.10;;;5.95;;
71947;SDS011;63257;55.082;38.772;2023-08-30T13:24:55;9.73;;;6.60;;
71947;SDS011;63257;55.082;38.772;2023-08-30T13:27:21;8.20;;;6.00;;
71947;SDS011;63257;55.082;38.772;2023-08-30T13:29:47;9.35;;;6.32;;
71947;SDS011;63257;55.082;38.772;2023-08-30T13:32:13;8.25;;;6.22;;
71947;SDS011;63257;55.082;38.772;2023-08-30T13:34:39;7.70;;;6.05;;
71947;SDS011;63257;55.082;38.772;2023-08-30T13:37:05;9.17;;;6.80;;
71947;SDS011;63257;55.082;38.772;2023-08-30T13:39:31;8.52;;;6.20;;
71947;SDS011;63257;55.082;38.772;2023-08-30T13:41:57;8.93;;;7.00;;
71947;SDS011;63257;55.082;38.772;2023-08-30T13:44:23;11.70;;;6.87;;
71947;SDS011;63257;55.082;38.772;2023-08-30T13:46:49;10.05;;;7.50;;
71947;SDS011;63257;55.082;38.772;2023-08-30T13:49:15;11.10;;;6.83;;
71947;SDS011;63257;55.082;38.772;2023-08-30T13:51:41;9.57;;;6.70;;
71947;SDS011;63257;55.082;38.772;2023-08-30T13:54:07;9.10;;;6.55;;
71947;SDS011;63257;55.082;38.772;2023-08-30T13:56:33;12.25;;;7.25;;
71947;SDS011;63257;55.082;38.772;2023-08-30T13:58:59;8.90;;;6.85;;
71947;SDS011;63257;55.082;38.772;2023-08-30T14:01:25;10.60;;;6.40;;
71947;SDS011;63257;55.082;38.772;2023-08-30T14:03:50;9.30;;;6.20;;
71947;SDS011;63257;55.082;38.772;2023-08-30T14:06:16;8.95;;;6.30;;
71947;SDS011;63257;55.082;38.772;2023-08-30T14:08:42;9.30;;;6.40;;
71947;SDS011;63257;55.082;38.772;2023-08-30T14:11:08;8.23;;;6.15;;
71947;SDS011;63257;55.082;38.772;2023-08-30T14:13:34;10.32;;;6.53;;
71947;SDS011;63257;55.082;38.772;2023-08-30T14:16:00;8.10;;;5.50;;
71947;SDS011;63257;55.082;38.772;2023-08-30T14:18:28;9.55;;;6.40;;
71947;SDS011;63257;55.082;38.772;2023-08-30T14:20:57;8.00;;;6.72;;
71947;SDS011;63257;55.082;38.772;2023-08-30T14:23:24;9.43;;;7.00;;
71947;SDS011;63257;55.082;38.772;2023-08-30T14:25:57;9.00;;;6.18;;